createdAt,value
2018-09-19T00:00:05.047Z,4.80
2018-09-19T00:01:09.154Z,4.60
2018-09-19T00:02:24.934Z,5.20
2018-09-19T00:03:24.635Z,5.10
2018-09-19T00:04:28.843Z,5.10
2018-09-19T00:05:41.862Z,5.20
2018-09-19T00:06:32.241Z,5.20
2018-09-19T00:07:53.260Z,5.50
2018-09-19T00:08:46.288Z,5.30
2018-09-19T00:09:47.636Z,5.50
2018-09-19T00:11:00.777Z,5.50
2018-09-19T00:12:20.415Z,4.90
2018-09-19T00:13:11.825Z,5.90
2018-09-19T00:14:21.975Z,5.70
2018-09-19T00:15:18.397Z,5.40
2018-09-19T00:16:36.436Z,5.90
2018-09-19T00:17:31.828Z,5.60
2018-09-19T00:18:34.604Z,5.70
2018-09-19T00:19:53.053Z,5.60
2018-09-19T00:20:49.485Z,5.90
2018-09-19T00:21:57.060Z,6.40
2018-09-19T00:23:00.961Z,6.00
2018-09-19T00:24:15.925Z,6.10
2018-09-19T00:25:18.284Z,6.30
2018-09-19T00:26:17.474Z,6.40
2018-09-19T00:27:29.359Z,5.80
2018-09-19T00:28:35.420Z,6.40
2018-09-19T00:29:43.200Z,6.60
2018-09-19T00:30:48.438Z,5.90
2018-09-19T00:31:41.373Z,5.90
2018-09-19T00:33:05.457Z,6.10
2018-09-19T00:33:58.080Z,5.90
2018-09-19T00:36:14.489Z,5.80
2018-09-19T00:37:16.767Z,5.90
2018-09-19T00:38:32.829Z,5.70
2018-09-19T00:39:26.488Z,5.90
2018-09-19T00:40:28.550Z,6.30
2018-09-19T00:41:37.361Z,6.10
2018-09-19T00:42:44.802Z,5.80
2018-09-19T00:44:06.920Z,6.30
2018-09-19T00:44:54.079Z,6.20
2018-09-19T00:46:11.089Z,6.50
2018-09-19T00:47:13.761Z,6.30
2018-09-19T00:48:10.096Z,6.20
2018-09-19T00:49:21.058Z,6.20
2018-09-19T00:50:35.699Z,6.40
2018-09-19T00:51:38.062Z,6.50
2018-09-19T00:52:31.826Z,6.30
2018-09-19T00:53:39.000Z,6.40
2018-09-19T00:54:49.452Z,6.30
2018-09-19T00:55:54.788Z,6.50
2018-09-19T00:56:56.031Z,6.00
2018-09-19T00:57:55.419Z,6.30
2018-09-19T00:59:13.455Z,6.80
2018-09-19T01:00:18.169Z,6.30
2018-09-19T01:01:17.256Z,6.50
2018-09-19T01:02:35.700Z,6.00
2018-09-19T01:03:38.783Z,5.50
2018-09-19T01:04:38.791Z,6.00
2018-09-19T01:05:41.156Z,5.80
2018-09-19T01:06:42.391Z,6.40
2018-09-19T01:07:48.544Z,5.90
2018-09-19T01:08:52.650Z,6.30
2018-09-19T01:10:02.384Z,6.00
2018-09-19T01:11:20.824Z,5.80
2018-09-19T01:12:06.804Z,6.30
2018-09-19T01:13:18.898Z,6.20
2018-09-19T01:14:37.850Z,6.20
2018-09-19T01:15:33.251Z,6.30
2018-09-19T01:16:30.494Z,6.20
2018-09-19T01:17:44.022Z,6.40
2018-09-19T01:19:07.173Z,6.50
2018-09-19T01:20:11.281Z,6.30
2018-09-19T01:21:04.951Z,6.20
2018-09-19T01:22:05.660Z,6.30
2018-09-19T01:23:13.262Z,6.20
2018-09-19T01:24:27.798Z,6.10
2018-09-19T01:25:36.001Z,6.40
2018-09-19T01:26:40.513Z,6.20
2018-09-19T01:27:42.364Z,6.00
2018-09-19T01:28:34.908Z,6.20
2018-09-19T01:29:42.079Z,6.00
2018-09-19T01:30:48.440Z,6.40
2018-09-19T01:32:15.175Z,6.00
2018-09-19T01:32:47.431Z,6.30
2018-09-19T01:34:06.285Z,6.20
2018-09-19T01:35:13.153Z,6.40
2018-09-19T01:36:31.696Z,6.20
2018-09-19T01:37:28.328Z,6.20
2018-09-19T01:38:31.098Z,6.40
2018-09-19T01:39:56.300Z,6.40
2018-09-19T01:40:44.226Z,6.50
2018-09-19T01:42:08.203Z,6.50
2018-09-19T01:43:09.741Z,6.80
2018-09-19T01:44:06.164Z,6.40
2018-09-19T01:44:58.288Z,6.40
2018-09-19T01:46:18.167Z,6.80
2018-09-19T01:47:02.915Z,6.60
2018-09-19T01:48:15.316Z,6.60
2018-09-19T01:49:24.553Z,7.10
2018-09-19T01:50:50.667Z,6.80
2018-09-19T01:51:42.797Z,7.10
2018-09-19T01:52:39.635Z,6.20
2018-09-19T01:53:51.821Z,7.10
2018-09-19T01:55:04.014Z,6.90
2018-09-19T01:56:30.240Z,6.10
2018-09-19T01:57:13.394Z,5.90
2018-09-19T01:58:26.468Z,6.50
2018-09-19T01:59:37.946Z,6.90
2018-09-19T02:00:20.753Z,6.70
2018-09-19T02:01:46.159Z,7.00
2018-09-19T02:02:58.144Z,7.60
2018-09-19T02:03:48.220Z,7.10
2018-09-19T02:04:37.475Z,6.90
2018-09-19T02:05:46.702Z,6.20
2018-09-19T02:06:50.907Z,7.00
2018-09-19T02:08:13.344Z,6.00
2018-09-19T02:09:08.744Z,6.90
2018-09-19T02:10:09.265Z,6.80
2018-09-19T02:11:20.755Z,6.50
2018-09-19T02:12:18.710Z,6.40
2018-09-19T02:13:15.746Z,6.00
2018-09-19T02:14:36.848Z,6.40
2018-09-19T02:15:35.428Z,5.90
2018-09-19T02:16:56.116Z,6.60
2018-09-19T02:17:33.190Z,6.50
2018-09-19T02:19:06.784Z,6.30
2018-09-19T02:20:02.902Z,6.60
2018-09-19T02:21:03.626Z,6.60
2018-09-19T02:22:09.493Z,6.80
2018-09-19T02:23:07.795Z,6.40
2018-09-19T02:24:10.314Z,6.20
2018-09-19T02:25:29.367Z,6.50
2018-09-19T02:26:32.041Z,6.60
2018-09-19T02:27:33.993Z,6.50
2018-09-19T02:28:44.072Z,6.80
2018-09-19T02:29:46.003Z,6.50
2018-09-19T02:30:53.173Z,6.40
2018-09-19T02:31:54.306Z,6.30
2018-09-19T02:33:06.300Z,6.50
2018-09-19T02:33:59.450Z,6.30
2018-09-19T02:35:12.356Z,6.50
2018-09-19T02:36:19.535Z,6.60
2018-09-19T02:37:27.938Z,6.30
2018-09-19T02:38:34.608Z,6.10
2018-09-19T02:39:35.226Z,6.30
2018-09-19T02:40:39.741Z,6.80
2018-09-19T02:41:45.282Z,6.40
2018-09-19T02:43:01.477Z,6.40
2018-09-19T02:43:52.881Z,6.50
2018-09-19T02:45:04.872Z,6.60
2018-09-19T02:46:14.001Z,6.80
2018-09-19T02:47:18.917Z,7.00
2018-09-19T02:48:17.178Z,6.90
2018-09-19T02:49:21.911Z,7.20
2018-09-19T02:50:17.403Z,6.50
2018-09-19T02:51:35.738Z,7.10
2018-09-19T02:52:36.160Z,6.90
2018-09-19T02:53:47.230Z,6.60
2018-09-19T02:54:43.553Z,6.80
2018-09-19T02:55:53.291Z,6.80
2018-09-19T02:56:56.266Z,6.30
2018-09-19T02:58:08.563Z,7.30
2018-09-19T02:59:20.869Z,7.20
2018-09-19T03:00:17.604Z,6.70
2018-09-19T03:01:26.102Z,6.30
2018-09-19T03:02:27.447Z,6.60
2018-09-19T03:03:38.404Z,6.30
2018-09-19T03:05:45.288Z,6.90
2018-09-19T03:06:55.230Z,6.60
2018-09-19T03:07:55.546Z,7.20
2018-09-19T03:09:06.206Z,7.00
2018-09-19T03:10:03.349Z,6.70
2018-09-19T03:11:12.470Z,6.60
2018-09-19T03:12:12.679Z,6.80
2018-09-19T03:13:21.367Z,6.30
2018-09-19T03:14:30.720Z,6.70
2018-09-19T03:16:36.884Z,6.20
2018-09-19T03:17:42.696Z,6.00
2018-09-19T03:18:48.497Z,6.30
2018-09-19T03:19:55.547Z,6.40
2018-09-19T03:20:59.242Z,6.30
2018-09-19T03:22:06.730Z,6.60
2018-09-19T03:23:07.043Z,6.20
2018-09-19T03:24:16.784Z,6.90
2018-09-19T03:25:23.661Z,6.60
2018-09-19T03:26:26.636Z,6.40
2018-09-19T03:27:32.683Z,6.40
2018-09-19T03:28:47.236Z,6.80
2018-09-19T03:29:47.343Z,7.10
2018-09-19T03:31:01.389Z,6.20
2018-09-19T03:31:56.985Z,6.60
2018-09-19T03:33:02.321Z,6.00
2018-09-19T03:34:08.473Z,6.40
2018-09-19T03:35:13.303Z,5.90
2018-09-19T03:36:20.370Z,6.10
2018-09-19T03:37:25.657Z,6.70
2018-09-19T03:38:39.334Z,6.10
2018-09-19T03:39:41.084Z,6.40
2018-09-19T03:40:44.578Z,6.60
2018-09-19T03:41:46.531Z,6.00
2018-09-19T03:42:52.584Z,6.80
2018-09-19T03:44:06.210Z,7.00
2018-09-19T03:44:58.848Z,6.50
2018-09-19T03:46:07.252Z,6.30
2018-09-19T03:47:11.972Z,6.10
2018-09-19T03:48:14.338Z,6.50
2018-09-19T03:49:22.336Z,6.30
2018-09-19T03:50:29.000Z,6.00
2018-09-19T03:51:35.159Z,6.40
2018-09-19T03:52:38.440Z,7.00
2018-09-19T03:53:58.421Z,6.40
2018-09-19T03:54:50.658Z,7.00
2018-09-19T03:56:01.919Z,6.70
2018-09-19T03:56:56.604Z,6.50
2018-09-19T03:58:24.895Z,6.80
2018-09-19T03:59:18.126Z,6.00
2018-09-19T04:00:16.088Z,6.50
2018-09-19T04:01:16.813Z,6.20
2018-09-19T04:02:26.959Z,6.40
2018-09-19T04:03:33.419Z,6.20
2018-09-19T04:04:49.718Z,5.90
2018-09-19T04:05:40.706Z,6.10
2018-09-19T04:06:51.469Z,5.80
2018-09-19T04:08:05.508Z,6.30
2018-09-19T04:08:59.577Z,6.10
2018-09-19T04:10:09.316Z,6.00
2018-09-19T04:11:14.861Z,5.90
2018-09-19T04:12:20.500Z,5.90
2018-09-19T04:13:25.317Z,6.20
2018-09-19T04:14:38.130Z,6.20
2018-09-19T04:15:46.534Z,6.40
2018-09-19T04:16:48.185Z,6.50
2018-09-19T04:17:45.557Z,6.50
2018-09-19T04:18:53.420Z,6.50
2018-09-19T04:19:55.584Z,6.20
2018-09-19T04:21:04.094Z,6.40
2018-09-19T04:22:11.271Z,6.60
2018-09-19T04:23:20.716Z,6.20
2018-09-19T04:24:19.788Z,6.00
2018-09-19T04:25:26.767Z,5.80
2018-09-19T04:26:37.010Z,6.30
2018-09-19T04:27:33.757Z,5.90
2018-09-19T04:28:37.843Z,6.70
2018-09-19T04:29:49.738Z,6.50
2018-09-19T04:30:48.512Z,6.10
2018-09-19T04:31:53.742Z,5.90
2018-09-19T04:33:04.404Z,6.30
2018-09-19T04:34:17.724Z,6.30
2018-09-19T04:35:13.844Z,6.50
2018-09-19T04:36:27.368Z,6.00
2018-09-19T04:37:24.609Z,6.90
2018-09-19T04:38:34.963Z,6.50
2018-09-19T04:39:50.128Z,6.80
2018-09-19T04:40:41.841Z,6.60
2018-09-19T04:41:47.486Z,6.50
2018-09-19T04:42:51.205Z,6.50
2018-09-19T04:43:58.763Z,6.20
2018-09-19T04:44:58.582Z,6.70
2018-09-19T04:46:12.604Z,6.10
2018-09-19T04:47:09.031Z,6.20
2018-09-19T04:48:27.777Z,6.40
2018-09-19T04:49:25.638Z,6.70
2018-09-19T04:50:36.707Z,7.00
2018-09-19T04:51:50.947Z,6.10
2018-09-19T04:52:35.594Z,6.10
2018-09-19T04:53:41.955Z,6.50
2018-09-19T04:55:04.500Z,6.40
2018-09-19T04:58:07.385Z,6.90
2018-09-19T04:59:18.963Z,7.20
2018-09-19T05:00:16.514Z,7.00
2018-09-19T05:01:32.904Z,7.20
2018-09-19T05:02:31.378Z,6.80
2018-09-19T05:03:46.547Z,7.00
2018-09-19T05:04:49.013Z,7.10
2018-09-19T05:05:56.800Z,6.90
2018-09-19T05:06:58.342Z,6.40
2018-09-19T05:07:59.683Z,6.70
2018-09-19T05:09:08.197Z,6.70
2018-09-19T05:10:06.251Z,7.30
2018-09-19T05:11:14.175Z,7.00
2018-09-19T05:12:24.600Z,6.90
2018-09-19T05:13:27.681Z,6.60
2018-09-19T05:14:33.325Z,6.70
2018-09-19T05:15:32.615Z,6.60
2018-09-19T05:16:37.956Z,6.70
2018-09-19T05:17:46.871Z,7.00
2018-09-19T05:18:55.274Z,7.20
2018-09-19T05:20:01.427Z,7.10
2018-09-19T05:21:06.353Z,6.90
2018-09-19T05:22:13.530Z,6.80
2018-09-19T05:23:16.209Z,6.40
2018-09-19T05:24:26.456Z,7.10
2018-09-19T05:25:31.490Z,6.30
2018-09-19T05:26:33.637Z,6.60
2018-09-19T05:27:34.465Z,6.60
2018-09-19T05:28:54.137Z,6.50
2018-09-19T05:29:49.332Z,6.90
2018-09-19T05:31:04.710Z,6.70
2018-09-19T05:31:58.568Z,7.50
2018-09-19T05:33:07.075Z,7.30
2018-09-19T05:34:10.153Z,7.20
2018-09-19T05:35:22.769Z,6.70
2018-09-19T05:36:18.677Z,6.90
2018-09-19T05:37:27.283Z,6.80
2018-09-19T05:38:33.745Z,6.90
2018-09-19T05:39:45.121Z,7.30
2018-09-19T05:40:44.821Z,7.10
2018-09-19T05:41:48.825Z,7.00
2018-09-19T05:42:59.279Z,7.20
2018-09-19T05:44:04.410Z,6.30
2018-09-19T05:45:00.945Z,7.50
2018-09-19T05:46:15.429Z,7.00
2018-09-19T05:47:20.412Z,7.20
2018-09-19T05:48:24.619Z,6.90
2018-09-19T05:49:31.497Z,6.80
2018-09-19T05:50:25.153Z,7.30
2018-09-19T05:51:49.127Z,7.00
2018-09-19T05:53:53.541Z,7.60
2018-09-19T05:54:56.319Z,7.30
2018-09-19T05:56:07.278Z,8.00
2018-09-19T05:57:19.270Z,8.00
2018-09-19T05:58:07.097Z,8.00
2018-09-19T05:59:14.369Z,7.60
2018-09-19T06:00:29.226Z,7.30
2018-09-19T06:01:35.483Z,7.50
2018-09-19T06:02:39.809Z,7.40
2018-09-19T06:03:45.334Z,7.30
2018-09-19T06:04:45.383Z,6.80
2018-09-19T06:05:44.429Z,7.20
2018-09-19T06:07:03.596Z,7.00
2018-09-19T06:08:04.542Z,7.20
2018-09-19T06:09:03.399Z,7.60
2018-09-19T06:10:19.802Z,7.70
2018-09-19T06:11:20.628Z,7.20
2018-09-19T06:12:25.237Z,7.50
2018-09-19T06:13:29.244Z,7.10
2018-09-19T06:14:39.080Z,7.10
2018-09-19T06:16:50.565Z,7.70
2018-09-19T06:17:45.761Z,7.30
2018-09-19T06:19:03.694Z,8.00
2018-09-19T06:20:11.484Z,7.50
2018-09-19T06:21:09.858Z,7.60
2018-09-19T06:22:19.284Z,8.10
2018-09-19T06:24:27.700Z,7.40
2018-09-19T06:25:28.937Z,7.70
2018-09-19T06:26:34.474Z,8.00
2018-09-19T06:27:37.040Z,8.10
2018-09-19T06:28:49.133Z,8.30
2018-09-19T06:29:50.782Z,8.00
2018-09-19T06:31:03.185Z,7.70
2018-09-19T06:32:06.260Z,7.70
2018-09-19T06:33:16.855Z,7.90
2018-09-19T06:34:08.628Z,8.70
2018-09-19T06:35:16.634Z,8.10
2018-09-19T06:36:25.347Z,7.50
2018-09-19T06:37:25.150Z,7.50
2018-09-19T06:38:30.693Z,7.00
2018-09-19T06:39:44.528Z,7.30
2018-09-19T06:40:53.540Z,7.20
2018-09-19T06:41:54.478Z,8.20
2018-09-19T06:42:55.819Z,7.50
2018-09-19T06:44:09.244Z,8.00
2018-09-19T06:45:09.250Z,7.50
2018-09-19T06:46:20.321Z,7.70
2018-09-19T06:47:22.070Z,7.80
2018-09-19T06:48:26.902Z,7.40
2018-09-19T06:49:41.138Z,7.70
2018-09-19T06:50:41.351Z,7.40
2018-09-19T06:51:50.331Z,7.60
2018-09-19T06:52:39.628Z,7.80
2018-09-19T06:53:49.160Z,7.70
2018-09-19T06:55:12.111Z,7.40
2018-09-19T06:56:13.654Z,7.90
2018-09-19T06:58:27.600Z,7.70
2018-09-19T06:59:32.981Z,7.50
2018-09-19T07:00:36.220Z,7.50
2018-09-19T07:01:31.415Z,7.20
2018-09-19T07:02:41.156Z,8.00
2018-09-19T07:03:45.261Z,7.80
2018-09-19T07:04:49.366Z,7.20
2018-09-19T07:05:51.063Z,7.60
2018-09-19T07:07:06.585Z,7.40
2018-09-19T07:08:30.253Z,6.90
2018-09-19T07:09:23.209Z,7.00
2018-09-19T07:10:26.683Z,7.60
2018-09-19T07:11:32.528Z,7.50
2018-09-19T07:12:33.764Z,7.50
2018-09-19T07:13:34.796Z,7.30
2018-09-19T07:15:43.013Z,7.20
2018-09-19T07:16:55.204Z,7.30
2018-09-19T07:17:55.625Z,7.20
2018-09-19T07:18:59.891Z,7.40
2018-09-19T07:20:04.142Z,7.00
2018-09-19T07:21:29.651Z,7.00
2018-09-19T07:22:36.727Z,7.10
2018-09-19T07:23:30.896Z,6.80
2018-09-19T07:24:27.934Z,7.10
2018-09-19T07:25:41.870Z,7.00
2018-09-19T07:26:52.127Z,6.40
2018-09-19T07:27:49.160Z,6.30
2018-09-19T07:29:25.727Z,6.50
2018-09-19T07:30:11.399Z,6.60
2018-09-19T07:31:27.175Z,6.70
2018-09-19T07:32:14.797Z,6.10
2018-09-19T07:33:25.967Z,6.60
2018-09-19T07:34:37.969Z,6.20
2018-09-19T07:35:49.546Z,6.40
2018-09-19T07:36:45.960Z,6.40
2018-09-19T07:37:47.132Z,6.40
2018-09-19T07:39:10.559Z,6.10
2018-09-19T07:39:58.274Z,5.90
2018-09-19T07:41:05.042Z,6.50
2018-09-19T07:42:20.544Z,6.50
2018-09-19T07:43:20.727Z,6.50
2018-09-19T07:44:25.245Z,6.00
2018-09-19T07:45:16.241Z,6.60
2018-09-19T07:46:24.598Z,6.20
2018-09-19T07:47:21.891Z,6.50
2018-09-19T07:48:39.924Z,6.30
2018-09-19T07:49:54.061Z,6.00
2018-09-19T07:50:39.226Z,6.50
2018-09-19T07:51:41.176Z,6.60
2018-09-19T07:52:56.236Z,6.50
2018-09-19T07:54:02.184Z,6.60
2018-09-19T07:55:06.308Z,6.30
2018-09-19T07:56:20.020Z,6.10
2018-09-19T07:57:12.551Z,6.20
2018-09-19T07:58:29.561Z,6.10
2018-09-19T07:59:27.726Z,6.20
2018-09-19T08:00:38.454Z,6.50
2018-09-19T08:01:55.398Z,6.20
2018-09-19T08:02:51.715Z,6.50
2018-09-19T08:03:55.517Z,6.70
2018-09-19T08:04:59.005Z,6.70
2018-09-19T08:06:02.392Z,6.20
2018-09-19T08:07:05.169Z,6.30
2018-09-19T08:08:11.013Z,6.40
2018-09-19T08:09:27.408Z,5.80
2018-09-19T08:10:21.273Z,6.30
2018-09-19T08:11:28.861Z,6.40
2018-09-19T08:12:38.194Z,6.30
2018-09-19T08:13:40.451Z,6.60
2018-09-19T08:14:40.356Z,6.20
2018-09-19T08:15:52.053Z,6.60
2018-09-19T08:16:56.789Z,6.40
2018-09-19T08:19:02.101Z,5.80
2018-09-19T08:20:26.587Z,5.60
2018-09-19T08:21:16.154Z,6.00
2018-09-19T08:22:25.229Z,5.60
2018-09-19T08:23:27.943Z,6.10
2018-09-19T08:24:38.608Z,5.60
2018-09-19T08:25:35.948Z,5.50
2018-09-19T08:26:45.786Z,5.40
2018-09-19T08:27:48.558Z,5.60
2018-09-19T08:28:59.837Z,5.10
2018-09-19T08:30:03.631Z,5.40
2018-09-19T08:30:58.731Z,5.50
2018-09-19T08:32:26.587Z,5.60
2018-09-19T08:33:19.429Z,5.30
2018-09-19T08:34:23.531Z,5.10
2018-09-19T08:35:40.846Z,5.30
2018-09-19T08:36:31.431Z,5.90
2018-09-19T08:38:54.164Z,4.70
2018-09-19T08:40:02.692Z,5.50
2018-09-19T08:40:57.785Z,5.00
2018-09-19T08:42:08.240Z,5.10
2018-09-19T08:43:23.615Z,5.10
2018-09-19T08:44:19.014Z,5.30
2018-09-19T08:45:31.411Z,5.10
2018-09-19T08:46:24.673Z,5.10
2018-09-19T08:48:02.459Z,4.90
2018-09-19T08:48:44.854Z,4.80
2018-09-19T08:49:54.183Z,4.90
2018-09-19T08:50:48.342Z,4.70
2018-09-19T08:51:58.398Z,4.70
2018-09-19T08:53:12.642Z,4.90
2018-09-19T08:54:00.169Z,4.80
2018-09-19T08:55:21.670Z,4.60
2018-09-19T08:56:12.770Z,4.60
2018-09-19T08:57:31.008Z,4.50
2018-09-19T08:58:27.639Z,4.90
2018-09-19T08:59:49.569Z,4.20
2018-09-19T09:00:54.689Z,4.60
2018-09-19T09:01:56.237Z,4.80
2018-09-19T09:02:53.891Z,4.90
2018-09-19T09:04:26.874Z,5.10
2018-09-19T09:06:24.739Z,4.90
2018-09-19T09:07:22.909Z,4.80
2018-09-19T09:09:00.703Z,5.10
2018-09-19T09:09:53.237Z,5.00
2018-09-19T09:10:43.723Z,4.70
2018-09-19T09:13:47.647Z,4.70
2018-09-19T09:15:26.464Z,4.90
2018-09-19T09:16:52.383Z,4.60
2018-09-19T09:18:29.360Z,4.80
2018-09-19T09:19:17.489Z,4.80
2018-09-19T09:20:43.102Z,4.60
2018-09-19T09:21:34.709Z,4.80
2018-09-19T09:22:33.283Z,4.90
2018-09-19T09:23:35.956Z,4.50
2018-09-19T09:24:35.144Z,5.20
2018-09-19T09:27:13.268Z,4.70
2018-09-19T09:28:36.206Z,4.70
2018-09-19T09:29:33.447Z,4.90
2018-09-19T09:30:18.709Z,5.00
2018-09-19T09:31:43.298Z,4.20
2018-09-19T09:33:30.620Z,4.60
2018-09-19T09:34:47.417Z,4.70
2018-09-19T09:35:39.955Z,4.30
2018-09-19T09:36:48.917Z,4.60
2018-09-19T09:37:47.697Z,4.40
2018-09-19T09:39:15.732Z,4.60
2018-09-19T09:40:08.147Z,4.80
2018-09-19T09:41:13.583Z,4.70
2018-09-19T09:42:18.408Z,4.40
2018-09-19T09:43:18.326Z,4.30
2018-09-19T09:44:23.339Z,4.20
2018-09-19T09:46:42.809Z,4.90
2018-09-19T09:47:34.325Z,4.40
2018-09-19T09:48:39.143Z,4.60
2018-09-19T09:49:47.856Z,4.60
2018-09-19T09:50:56.260Z,4.30
2018-09-19T09:52:17.693Z,4.10
2018-09-19T09:53:08.989Z,3.80
2018-09-19T09:54:08.166Z,4.30
2018-09-19T09:55:09.630Z,4.10
2018-09-19T09:56:09.924Z,4.10
2018-09-19T09:57:31.645Z,4.00
2018-09-19T09:58:37.905Z,4.40
2018-09-19T09:59:41.196Z,4.00
2018-09-19T10:00:48.975Z,4.40
2018-09-19T10:01:54.102Z,4.20
2018-09-19T10:02:57.092Z,4.20
2018-09-19T10:03:59.238Z,3.80
2018-09-19T10:05:12.156Z,4.00
2018-09-19T10:06:11.750Z,3.90
2018-09-19T10:07:21.490Z,3.90
2018-09-19T10:08:24.057Z,4.40
2018-09-19T10:09:28.060Z,4.40
2018-09-19T10:10:42.199Z,4.00
2018-09-19T10:11:41.490Z,4.00
2018-09-19T10:12:47.133Z,4.00
2018-09-19T10:13:52.678Z,4.30
2018-09-19T10:14:35.170Z,4.10
2018-09-19T10:16:00.472Z,3.60
2018-09-19T10:17:15.750Z,4.10
2018-09-19T10:18:25.888Z,4.30
2018-09-19T10:19:16.179Z,4.00
2018-09-19T10:20:39.429Z,3.90
2018-09-19T10:21:45.273Z,3.80
2018-09-19T10:22:31.149Z,3.70
2018-09-19T10:23:39.045Z,3.50
2018-09-19T10:24:48.786Z,3.60
2018-09-19T10:25:47.156Z,3.90
2018-09-19T10:26:46.549Z,3.90
2018-09-19T10:27:54.349Z,3.80
2018-09-19T10:29:08.786Z,4.00
2018-09-19T10:30:05.927Z,3.90
2018-09-19T10:31:19.759Z,3.80
2018-09-19T10:32:32.571Z,3.70
2018-09-19T10:33:27.459Z,3.70
2018-09-19T10:34:37.604Z,3.60
2018-09-19T10:35:33.470Z,3.80
2018-09-19T10:36:41.206Z,3.70
2018-09-19T10:37:47.872Z,3.60
2018-09-19T10:38:41.837Z,3.60
2018-09-19T10:40:01.511Z,3.60
2018-09-19T10:41:26.708Z,3.90
2018-09-19T10:42:07.977Z,3.70
2018-09-19T10:43:02.357Z,3.70
2018-09-19T10:44:23.974Z,3.90
2018-09-19T10:45:34.634Z,4.10
2018-09-19T10:47:41.102Z,3.80
2018-09-19T10:48:53.402Z,3.90
2018-09-19T10:49:49.518Z,4.00
2018-09-19T10:50:52.189Z,3.80
2018-09-19T10:51:56.200Z,4.00
2018-09-19T10:53:03.165Z,4.00
2018-09-19T10:53:59.796Z,4.10
2018-09-19T10:55:18.337Z,4.10
2018-09-19T10:56:22.237Z,3.80
2018-09-19T10:57:31.462Z,3.90
2018-09-19T10:59:36.191Z,3.80
2018-09-19T11:00:40.298Z,4.20
2018-09-19T11:01:51.978Z,4.10
2018-09-19T11:02:55.575Z,4.00
2018-09-19T11:04:01.109Z,3.90
2018-09-19T11:04:57.942Z,4.40
2018-09-19T11:06:16.384Z,4.40
2018-09-19T11:07:20.079Z,4.30
2018-09-19T11:08:15.479Z,4.10
2018-09-19T11:09:30.334Z,3.90
2018-09-19T11:10:32.084Z,4.10
2018-09-19T11:11:56.055Z,4.10
2018-09-19T11:12:42.048Z,4.00
2018-09-19T11:14:02.217Z,4.10
2018-09-19T11:15:33.564Z,4.30
2018-09-19T11:15:55.375Z,3.70
2018-09-19T11:17:23.442Z,3.80
2018-09-19T11:18:07.478Z,4.50
2018-09-19T11:19:33.498Z,4.20
2018-09-19T11:20:23.573Z,4.00
2018-09-19T11:21:36.074Z,4.40
2018-09-19T11:22:44.490Z,4.50
2018-09-19T11:23:40.290Z,4.30
2018-09-19T11:24:46.546Z,4.50
2018-09-19T11:25:48.503Z,4.60
2018-09-19T11:27:08.686Z,4.40
2018-09-19T11:28:06.645Z,4.50
2018-09-19T11:29:09.010Z,4.30
2018-09-19T11:30:11.376Z,4.50
2018-09-19T11:31:19.166Z,4.00
2018-09-19T11:32:25.217Z,4.00
2018-09-19T11:33:25.225Z,4.30
2018-09-19T11:34:51.760Z,4.30
2018-09-19T11:35:41.582Z,4.30
2018-09-19T11:36:53.417Z,4.50
2018-09-19T11:37:58.134Z,4.60
2018-09-19T11:39:06.437Z,4.10
2018-09-19T11:40:00.302Z,4.30
2018-09-19T11:41:10.346Z,4.40
2018-09-19T11:42:19.572Z,4.50
2018-09-19T11:43:35.547Z,4.50
2018-09-19T11:44:16.835Z,4.60
2018-09-19T11:45:31.078Z,4.80
2018-09-19T11:46:31.179Z,4.70
2018-09-19T11:48:45.644Z,4.70
2018-09-19T11:49:51.586Z,4.50
2018-09-19T11:50:55.909Z,5.00
2018-09-19T11:53:10.046Z,4.50
2018-09-19T11:54:11.897Z,4.70
2018-09-19T11:56:28.209Z,4.80
2018-09-19T11:57:24.523Z,4.60
2018-09-19T11:58:39.789Z,4.60
2018-09-19T11:59:31.721Z,4.60
2018-09-19T12:00:41.753Z,4.70
2018-09-19T12:02:49.961Z,4.40
2018-09-19T12:05:12.304Z,4.50
2018-09-19T12:06:41.501Z,4.50
2018-09-19T12:07:28.717Z,4.20
2018-09-19T12:08:24.213Z,4.40
2018-09-19T12:09:26.783Z,4.60
2018-09-19T12:10:48.809Z,4.50
2018-09-19T12:11:45.743Z,4.10
2018-09-19T12:12:46.064Z,4.50
2018-09-19T12:14:10.238Z,4.70
2018-09-19T12:15:03.590Z,4.50
2018-09-19T12:17:07.413Z,4.10
2018-09-19T12:18:20.923Z,3.90
2018-09-19T12:19:18.379Z,3.70
2018-09-19T12:20:31.804Z,4.00
2018-09-19T12:21:37.847Z,3.60
2018-09-19T12:22:36.121Z,4.20
2018-09-19T12:24:58.662Z,3.60
2018-09-19T12:25:52.640Z,3.80
2018-09-19T12:26:56.016Z,4.10
2018-09-19T12:28:12.512Z,3.70
2018-09-19T12:29:17.246Z,3.90
2018-09-19T12:30:16.729Z,3.70
2018-09-19T12:32:23.813Z,3.70
2018-09-19T12:33:35.395Z,3.80
2018-09-19T12:35:54.973Z,3.90
2018-09-19T12:36:55.701Z,3.70
2018-09-19T12:37:57.243Z,4.10
2018-09-19T12:39:02.577Z,3.90
2018-09-19T12:40:08.011Z,3.70
2018-09-19T12:41:09.978Z,3.50
2018-09-19T12:42:13.356Z,3.80
2018-09-19T12:44:26.581Z,3.70
2018-09-19T12:45:33.452Z,4.10
2018-09-19T12:47:41.868Z,3.80
2018-09-19T12:48:54.676Z,3.60
2018-09-19T12:50:01.250Z,3.90
2018-09-19T12:51:03.603Z,4.00
2018-09-19T12:52:09.863Z,3.80
2018-09-19T12:53:26.181Z,4.10
2018-09-19T12:54:20.536Z,3.90
2018-09-19T12:56:35.805Z,3.60
2018-09-19T12:58:38.179Z,4.00
2018-09-19T12:59:41.262Z,3.60
2018-09-19T13:00:57.241Z,3.50
2018-09-19T13:01:58.790Z,3.70
2018-09-19T13:03:02.927Z,3.60
2018-09-19T13:04:17.444Z,3.80
2018-09-19T13:06:17.359Z,3.90
2018-09-19T13:07:32.521Z,3.80
2018-09-19T13:08:31.654Z,3.70
2018-09-19T13:09:44.934Z,3.50
2018-09-19T13:10:45.155Z,3.40
2018-09-19T13:11:52.831Z,4.00
2018-09-19T13:13:06.461Z,3.30
2018-09-19T13:14:01.553Z,3.60
2018-09-19T13:15:12.007Z,3.50
2018-09-19T13:16:07.203Z,3.60
2018-09-19T13:17:22.266Z,3.70
2018-09-19T13:18:26.683Z,3.50
2018-09-19T13:19:26.281Z,3.50
2018-09-19T13:20:35.913Z,3.60
2018-09-19T13:21:46.481Z,3.20
2018-09-19T13:22:57.334Z,3.60
2018-09-19T13:24:49.064Z,3.40
2018-09-19T13:26:10.980Z,3.20
2018-09-19T13:27:15.111Z,3.60
2018-09-19T13:28:16.225Z,3.60
2018-09-19T13:29:20.841Z,3.50
2018-09-19T13:31:26.282Z,3.80
2018-09-19T13:32:33.564Z,3.80
2018-09-19T13:33:25.789Z,3.80
2018-09-19T13:34:56.826Z,3.40
2018-09-19T13:35:38.617Z,3.90
2018-09-19T13:38:39.560Z,3.50
2018-09-19T13:39:12.335Z,3.80
2018-09-19T13:40:22.884Z,3.50
2018-09-19T13:41:25.557Z,3.60
2018-09-19T13:42:36.223Z,4.10
2018-09-19T13:43:35.918Z,4.00
2018-09-19T13:45:43.513Z,4.00
2018-09-19T13:46:56.948Z,3.80
2018-09-19T13:48:07.090Z,3.50
2018-09-19T13:48:55.621Z,3.90
2018-09-19T13:50:01.362Z,3.90
2018-09-19T13:51:03.215Z,3.90
2018-09-19T13:52:07.626Z,4.00
2018-09-19T13:54:25.565Z,4.00
2018-09-19T13:55:41.140Z,4.00
2018-09-19T13:56:49.444Z,4.20
2018-09-19T13:57:49.349Z,4.40
2018-09-19T13:58:48.353Z,3.80
2018-09-19T13:59:51.930Z,4.10
2018-09-19T14:01:09.549Z,4.10
2018-09-19T14:02:01.877Z,4.20
2018-09-19T14:03:13.969Z,3.90
2018-09-19T14:04:09.117Z,3.90
2018-09-19T14:05:29.553Z,3.70
2018-09-19T14:06:18.708Z,4.10
2018-09-19T14:07:25.474Z,4.00
2018-09-19T14:09:34.304Z,4.20
2018-09-19T14:10:41.785Z,4.20
2018-09-19T14:11:51.624Z,4.20
2018-09-19T14:13:03.514Z,4.00
2018-09-19T14:14:13.658Z,4.30
2018-09-19T14:15:08.444Z,3.80
2018-09-19T14:17:19.009Z,4.10
2018-09-19T14:19:23.631Z,3.90
2018-09-19T14:20:35.417Z,3.70
2018-09-19T14:21:42.800Z,3.70
2018-09-19T14:22:45.174Z,3.80
2018-09-19T14:24:04.221Z,4.30
2018-09-19T14:24:52.249Z,4.10
2018-09-19T14:26:05.678Z,3.50
2018-09-19T14:27:05.780Z,3.80
2018-09-19T14:28:15.226Z,4.10
2018-09-19T14:29:16.041Z,3.90
2018-09-19T14:31:28.243Z,4.00
2018-09-19T14:32:31.949Z,3.70
2018-09-19T14:33:42.088Z,4.20
2018-09-19T14:34:58.584Z,3.70
2018-09-19T14:35:57.432Z,4.20
2018-09-19T14:37:00.136Z,3.90
2018-09-19T14:39:23.913Z,4.00
2018-09-19T14:40:12.040Z,3.80
2018-09-19T14:41:25.363Z,4.20
2018-09-19T14:42:22.418Z,3.60
2018-09-19T14:43:32.447Z,4.00
2018-09-19T14:44:47.418Z,3.90
2018-09-19T14:45:43.525Z,3.90
2018-09-19T14:46:53.363Z,3.60
2018-09-19T14:47:56.546Z,4.00
2018-09-19T14:49:14.681Z,4.00
2018-09-19T14:51:11.521Z,4.20
2018-09-19T14:52:13.885Z,4.20
2018-09-19T14:54:25.679Z,4.10
2018-09-19T14:55:33.468Z,4.10
2018-09-19T14:56:38.809Z,4.00
2018-09-19T14:57:49.363Z,3.80
2018-09-19T14:59:01.664Z,3.80
2018-09-19T14:59:51.015Z,4.00
2018-09-19T15:01:14.276Z,4.20
2018-09-19T15:02:16.223Z,4.30
2018-09-19T15:03:13.093Z,4.00
2018-09-19T15:04:16.754Z,4.50
2018-09-19T15:05:31.609Z,4.10
2018-09-19T15:06:24.968Z,4.00
2018-09-19T15:07:26.715Z,3.90
2018-09-19T15:09:37.687Z,3.80
2018-09-19T15:10:51.124Z,4.50
2018-09-19T15:11:51.530Z,4.00
2018-09-19T15:12:59.425Z,4.20
2018-09-19T15:14:03.428Z,3.80
2018-09-19T15:15:05.081Z,4.00
2018-09-19T15:16:27.718Z,4.20
2018-09-19T15:18:35.619Z,4.20
2018-09-19T15:19:24.474Z,4.00
2018-09-19T15:20:38.708Z,3.90
2018-09-19T15:21:55.006Z,4.10
2018-09-19T15:22:46.517Z,4.10
2018-09-19T15:23:56.045Z,4.60
2018-09-19T15:24:55.129Z,3.80